createdAt,value
2022-09-12T00:02:05.510Z,11.20
2022-09-12T00:04:38.962Z,11.30
2022-09-12T00:07:09.964Z,11.20
2022-09-12T00:09:41.010Z,11.20
2022-09-12T00:12:13.280Z,11.20
2022-09-12T00:14:48.333Z,11.10
2022-09-12T00:17:22.958Z,11.20
2022-09-12T00:19:59.026Z,11.20
2022-09-12T00:22:29.257Z,11.20
2022-09-12T00:25:03.965Z,11.10
2022-09-12T00:27:46.746Z,11.00
2022-09-12T00:30:20.381Z,11.00
2022-09-12T00:32:57.995Z,10.90
2022-09-12T00:35:39.646Z,11.00
2022-09-12T00:38:12.317Z,11.00
2022-09-12T00:40:41.962Z,11.00
2022-09-12T00:43:15.459Z,10.90
2022-09-12T00:45:44.526Z,10.90
2022-09-12T00:48:25.726Z,10.90
2022-09-12T00:50:56.407Z,10.80
2022-09-12T00:53:25.618Z,10.70
2022-09-12T00:55:54.853Z,10.80
2022-09-12T00:58:28.466Z,10.70
2022-09-12T01:00:58.596Z,10.70
2022-09-12T01:03:28.616Z,10.70
2022-09-12T01:06:07.057Z,10.60
2022-09-12T01:08:39.725Z,10.60
2022-09-12T01:11:10.198Z,10.60
2022-09-12T01:13:39.494Z,10.70
2022-09-12T01:16:09.897Z,10.60
2022-09-12T01:18:56.554Z,10.60
2022-09-12T01:21:38.929Z,10.50
2022-09-12T01:24:37.089Z,10.40
2022-09-12T01:27:37.690Z,10.40
2022-09-12T01:30:49.711Z,10.40
2022-09-12T01:33:38.336Z,10.40
2022-09-12T01:36:36.809Z,10.50
2022-09-12T01:39:10.406Z,10.50
2022-09-12T01:41:54.247Z,10.50
2022-09-12T01:44:33.629Z,10.50
2022-09-12T01:47:09.739Z,10.40
2022-09-12T01:49:43.545Z,10.40
2022-09-12T01:52:20.037Z,10.40
2022-09-12T01:55:09.451Z,10.30
2022-09-12T01:58:13.801Z,10.30
2022-09-12T02:00:57.712Z,10.30
2022-09-12T02:03:32.485Z,10.20
2022-09-12T02:06:09.194Z,10.10
2022-09-12T02:08:47.510Z,10.10
2022-09-12T02:11:24.848Z,10.00
2022-09-12T02:14:00.626Z,10.00
2022-09-12T02:16:34.911Z,10.00
2022-09-12T02:19:12.106Z,10.00
2022-09-12T02:21:44.281Z,10.00
2022-09-12T02:24:16.086Z,9.90
2022-09-12T02:26:51.537Z,10.00
2022-09-12T02:29:20.468Z,9.90
2022-09-12T02:31:51.288Z,10.00
2022-09-12T02:34:33.565Z,9.90
2022-09-12T02:37:13.415Z,9.90
2022-09-12T02:39:45.283Z,9.80
2022-09-12T02:42:15.187Z,9.80
2022-09-12T02:44:44.510Z,9.80
2022-09-12T02:47:17.585Z,9.90
2022-09-12T02:49:48.670Z,10.00
2022-09-12T02:52:17.583Z,10.10
2022-09-12T02:54:47.419Z,10.00
2022-09-12T02:57:23.138Z,9.90
2022-09-12T02:59:55.761Z,9.80
2022-09-12T03:02:34.044Z,9.80
2022-09-12T03:05:18.731Z,9.70
2022-09-12T03:08:16.564Z,9.70
2022-09-12T03:10:57.457Z,9.80
2022-09-12T03:13:36.138Z,9.80
2022-09-12T03:16:23.185Z,9.70
2022-09-12T03:19:08.463Z,9.70
2022-09-12T03:21:52.182Z,9.70
2022-09-12T03:24:24.584Z,9.70
2022-09-12T03:26:58.465Z,9.60
2022-09-12T03:29:29.804Z,9.70
2022-09-12T03:32:31.357Z,9.70
2022-09-12T03:35:46.507Z,9.70
2022-09-12T03:38:47.245Z,9.70
2022-09-12T03:41:39.085Z,9.70
2022-09-12T03:44:26.114Z,9.70
2022-09-12T03:47:17.752Z,9.70
2022-09-12T03:50:07.436Z,9.60
2022-09-12T03:53:07.370Z,9.60
2022-09-12T03:55:52.371Z,9.70
2022-09-12T03:58:34.384Z,9.70
2022-09-12T04:01:19.660Z,9.70
2022-09-12T04:04:03.254Z,9.70
2022-09-12T04:06:50.550Z,9.60
2022-09-12T04:09:37.654Z,9.70
2022-09-12T04:12:10.252Z,9.50
2022-09-12T04:14:44.241Z,9.50
2022-09-12T04:17:19.070Z,9.50
2022-09-12T04:20:06.948Z,9.40
2022-09-12T04:22:43.176Z,9.40
2022-09-12T04:25:24.967Z,9.50
2022-09-12T04:28:11.710Z,9.50
2022-09-12T04:31:03.263Z,9.60
2022-09-12T04:33:39.418Z,9.60
2022-09-12T04:37:24.228Z,9.50
2022-09-12T04:39:59.807Z,9.50
2022-09-12T04:42:48.185Z,9.50
2022-09-12T04:45:32.847Z,9.50
2022-09-12T04:48:08.826Z,9.40
2022-09-12T04:50:41.887Z,9.40
2022-09-12T04:53:10.941Z,9.40
2022-09-12T04:55:39.774Z,9.50
2022-09-12T04:58:09.921Z,9.50
2022-09-12T05:00:40.432Z,9.60
2022-09-12T05:03:09.278Z,9.60
2022-09-12T05:05:38.306Z,9.60
2022-09-12T05:08:07.358Z,9.60
2022-09-12T05:10:36.853Z,9.70
2022-09-12T05:13:06.097Z,9.70
2022-09-12T05:15:35.648Z,9.70
2022-09-12T05:18:08.354Z,9.80
2022-09-12T05:20:38.454Z,9.80
2022-09-12T05:23:07.297Z,9.90
2022-09-12T05:25:36.351Z,10.00
2022-09-12T05:28:07.562Z,10.20
2022-09-12T05:30:36.653Z,10.30
2022-09-12T05:33:07.045Z,10.40
2022-09-12T05:35:38.249Z,10.40
2022-09-12T05:38:07.552Z,10.60
2022-09-12T05:40:36.441Z,10.60
2022-09-12T05:43:05.493Z,10.80
2022-09-12T05:45:35.032Z,10.90
2022-09-12T05:48:05.812Z,11.00
2022-09-12T05:50:34.807Z,11.20
2022-09-12T05:53:04.006Z,11.30
2022-09-12T05:55:33.509Z,11.50
2022-09-12T05:58:02.716Z,11.70
2022-09-12T06:00:33.661Z,11.80
2022-09-12T06:03:02.936Z,12.00
2022-09-12T06:05:34.219Z,12.10
2022-09-12T06:08:03.457Z,12.20
2022-09-12T06:10:32.798Z,12.40
2022-09-12T06:13:01.625Z,12.50
2022-09-12T06:15:30.405Z,12.70
2022-09-12T06:18:01.967Z,12.90
2022-09-12T06:20:30.998Z,13.00
2022-09-12T06:23:01.802Z,13.20
2022-09-12T06:25:30.835Z,13.40
2022-09-12T06:27:59.878Z,13.60
2022-09-12T06:30:28.875Z,13.80
2022-09-12T06:32:58.980Z,13.90
2022-09-12T06:35:28.109Z,14.10
2022-09-12T06:38:00.678Z,14.30
2022-09-12T06:40:32.522Z,14.50
2022-09-12T06:43:02.511Z,14.70
2022-09-12T06:45:38.817Z,14.90
2022-09-12T06:48:10.254Z,15.10
2022-09-12T06:50:39.782Z,15.30
2022-09-12T06:53:09.513Z,15.50
2022-09-12T06:55:40.814Z,15.90
2022-09-12T06:58:09.759Z,16.20
2022-09-12T07:00:40.517Z,16.50
2022-09-12T07:03:12.744Z,16.80
2022-09-12T07:05:45.775Z,17.00
2022-09-12T07:08:15.412Z,17.10
2022-09-12T07:10:47.155Z,17.20
2022-09-12T07:13:17.102Z,17.20
2022-09-12T07:15:47.238Z,17.40
2022-09-12T07:18:22.749Z,17.50
2022-09-12T07:20:52.584Z,17.70
2022-09-12T07:23:26.796Z,17.90
2022-09-12T07:26:02.240Z,18.10
2022-09-12T07:28:33.069Z,18.30
2022-09-12T07:31:08.121Z,18.50
2022-09-12T07:33:37.575Z,18.60
2022-09-12T07:36:08.350Z,18.60
2022-09-12T07:38:37.795Z,18.60
2022-09-12T07:41:17.670Z,18.60
2022-09-12T07:43:47.932Z,18.70
2022-09-12T07:46:17.025Z,18.70
2022-09-12T07:48:46.493Z,18.70
2022-09-12T07:51:18.896Z,18.80
2022-09-12T07:53:49.367Z,18.80
2022-09-12T07:56:25.042Z,18.70
2022-09-12T07:58:57.248Z,18.70
2022-09-12T08:01:26.774Z,18.70
2022-09-12T08:03:58.589Z,18.70
2022-09-12T08:06:30.624Z,18.80
2022-09-12T08:09:02.129Z,18.80
2022-09-12T08:11:32.609Z,18.80
2022-09-12T08:14:03.253Z,18.80
2022-09-12T08:16:35.035Z,18.80
2022-09-12T08:19:05.330Z,18.80
2022-09-12T08:21:35.770Z,18.80
2022-09-12T08:24:07.513Z,18.90
2022-09-12T08:26:39.203Z,19.00
2022-09-12T08:29:11.050Z,19.00
2022-09-12T08:31:43.184Z,19.10
2022-09-12T08:34:12.415Z,19.10
2022-09-12T08:36:41.812Z,19.40
2022-09-12T08:39:15.135Z,19.60
2022-09-12T08:41:47.550Z,19.90
2022-09-12T08:44:42.882Z,20.10
2022-09-12T08:47:27.307Z,20.20
2022-09-12T08:50:04.722Z,20.50
2022-09-12T08:52:41.053Z,20.50
2022-09-12T08:55:25.447Z,20.50
2022-09-12T08:57:57.057Z,20.60
2022-09-12T09:00:32.273Z,20.60
2022-09-12T09:03:27.671Z,20.60
2022-09-12T09:06:04.912Z,20.60
2022-09-12T09:08:50.480Z,20.50
2022-09-12T09:11:36.215Z,20.50
2022-09-12T09:14:43.515Z,20.50
2022-09-12T09:17:15.615Z,20.40
2022-09-12T09:19:51.145Z,20.30
2022-09-12T09:22:29.776Z,20.30
2022-09-12T09:25:04.224Z,20.40
2022-09-12T09:27:40.867Z,20.40
2022-09-12T09:30:17.171Z,20.60
2022-09-12T16:19:10.461Z,32.70
2022-09-12T17:05:09.031Z,34.50
2022-09-12T17:07:40.122Z,34.10
2022-09-12T17:10:09.181Z,34.00
2022-09-12T17:12:38.029Z,33.90
2022-09-12T17:15:08.204Z,33.70
2022-09-12T17:17:37.098Z,33.40
2022-09-12T17:20:07.915Z,32.90
2022-09-12T17:22:36.906Z,31.90
2022-09-12T17:25:06.726Z,30.80
2022-09-12T17:27:35.494Z,29.70
2022-09-12T17:30:04.477Z,28.80
2022-09-12T17:32:33.365Z,28.20
2022-09-12T17:35:02.416Z,27.60
2022-09-12T17:37:33.522Z,27.10
2022-09-12T17:40:02.912Z,26.60
2022-09-12T17:42:31.791Z,26.30
2022-09-12T17:45:00.551Z,26.00
2022-09-12T17:47:29.316Z,25.70
2022-09-12T17:50:14.490Z,25.40
2022-09-12T17:52:48.828Z,25.00
2022-09-12T17:55:19.243Z,24.60
2022-09-12T17:57:48.293Z,24.10
2022-09-12T18:00:17.463Z,23.70
2022-09-12T18:02:47.048Z,23.50
2022-09-12T18:05:15.948Z,23.40
2022-09-12T18:07:45.012Z,23.20
2022-09-12T18:10:16.139Z,22.80
2022-09-12T18:12:47.508Z,22.50
2022-09-12T18:15:16.575Z,22.40
2022-09-12T18:17:45.278Z,22.50
2022-09-12T18:20:14.051Z,22.40
2022-09-12T18:22:43.170Z,22.10
2022-09-12T18:25:12.562Z,21.70
2022-09-12T18:27:42.797Z,21.40
2022-09-12T18:30:21.775Z,21.20
2022-09-12T18:32:51.814Z,21.20
2022-09-12T18:35:20.801Z,21.20
2022-09-12T18:37:49.520Z,21.30
2022-09-12T18:40:18.700Z,21.20
2022-09-12T18:42:49.679Z,21.20
2022-09-12T18:45:18.757Z,21.10
2022-09-12T18:47:47.550Z,20.90
2022-09-12T18:50:16.562Z,20.70
2022-09-12T18:52:45.646Z,20.40
2022-09-12T18:55:14.662Z,20.30
2022-09-12T18:57:43.622Z,20.20
2022-09-12T19:00:15.735Z,20.00
2022-09-12T19:02:44.738Z,19.70
2022-09-12T19:05:28.347Z,19.50
2022-09-12T19:18:49.794Z,19.50
2022-09-12T19:22:21.780Z,19.50
2022-09-12T19:29:20.177Z,18.90
2022-09-12T19:50:06.518Z,18.70
2022-09-12T20:03:30.564Z,18.80
2022-09-12T20:06:04.321Z,18.50
2022-09-12T20:08:33.568Z,18.30
2022-09-12T20:11:02.553Z,18.20
2022-09-12T20:13:31.353Z,18.20
2022-09-12T20:16:08.101Z,18.10
2022-09-12T20:18:38.759Z,18.20
2022-09-12T20:21:12.690Z,18.10
2022-09-12T20:23:41.705Z,18.00
2022-09-12T20:26:11.732Z,18.00
2022-09-12T20:28:44.019Z,18.00
2022-09-12T20:31:14.848Z,18.00
2022-09-12T20:33:51.121Z,18.00
2022-09-12T20:36:22.151Z,18.10
2022-09-12T20:38:52.609Z,18.10
2022-09-12T20:41:22.717Z,18.20
2022-09-12T20:43:52.870Z,18.30
2022-09-12T20:46:22.750Z,18.40
2022-09-12T20:48:55.254Z,18.50
2022-09-12T20:51:25.000Z,18.70
2022-09-12T20:53:55.767Z,18.60
2022-09-12T20:56:27.564Z,18.60
2022-09-12T20:58:57.383Z,18.60
2022-09-12T21:01:27.666Z,18.70
2022-09-12T21:03:58.150Z,18.80
2022-09-12T21:06:27.578Z,18.70
2022-09-12T21:08:59.982Z,18.60
2022-09-12T21:11:29.781Z,18.60
2022-09-12T21:13:59.300Z,18.60
2022-09-12T21:16:28.608Z,18.70
2022-09-12T21:19:00.313Z,18.60
2022-09-12T21:21:29.442Z,18.60
2022-09-12T21:24:01.047Z,18.60
2022-09-12T21:26:30.380Z,18.50
2022-09-12T21:28:59.667Z,18.30
2022-09-12T21:31:28.785Z,18.40
2022-09-12T21:33:59.583Z,18.30
2022-09-12T21:36:31.667Z,18.20
2022-09-12T21:39:00.914Z,18.20
2022-09-12T21:41:30.179Z,18.20
2022-09-12T21:43:59.762Z,18.20
2022-09-12T21:46:28.882Z,18.10
2022-09-12T21:48:59.622Z,18.20
2022-09-12T21:51:28.459Z,18.10
2022-09-12T21:53:57.398Z,17.90
2022-09-12T21:56:26.423Z,17.80
2022-09-12T21:58:55.064Z,17.80
2022-09-12T22:01:23.979Z,17.70
2022-09-12T22:03:53.359Z,17.70
2022-09-12T22:06:23.871Z,17.60
2022-09-12T22:08:52.526Z,17.50
2022-09-12T22:11:23.050Z,17.50
2022-09-12T22:13:51.754Z,17.50
2022-09-12T22:16:20.796Z,17.40
2022-09-12T22:18:51.147Z,17.30
2022-09-12T22:21:24.526Z,17.30
2022-09-12T22:24:10.799Z,17.30
2022-09-12T22:26:44.561Z,17.30
2022-09-12T22:29:14.727Z,17.50
2022-09-12T22:31:43.682Z,17.60
2022-09-12T22:34:12.423Z,17.90
2022-09-12T22:36:42.674Z,18.00
2022-09-12T22:39:11.559Z,18.00
2022-09-12T22:41:40.323Z,18.10
2022-09-12T22:44:09.251Z,18.30
2022-09-12T22:46:38.224Z,18.40
2022-09-12T22:49:07.413Z,18.40
2022-09-12T22:51:36.537Z,18.40
2022-09-12T22:54:07.361Z,18.30
2022-09-12T22:56:35.927Z,18.40
2022-09-12T22:59:05.183Z,18.30
2022-09-12T23:01:34.219Z,18.10
2022-09-12T23:04:04.322Z,18.10
2022-09-12T23:06:33.006Z,18.10
2022-09-12T23:09:02.108Z,18.20
2022-09-12T23:11:32.339Z,18.20
2022-09-12T23:14:01.179Z,18.20
2022-09-12T23:16:32.430Z,18.30
2022-09-12T23:19:01.437Z,18.40
2022-09-12T23:21:31.091Z,18.40
2022-09-12T23:24:00.393Z,18.30
2022-09-12T23:26:30.143Z,18.30
2022-09-12T23:29:02.785Z,18.20
2022-09-12T23:31:33.191Z,18.00
2022-09-12T23:34:03.756Z,17.80
2022-09-12T23:36:32.826Z,17.70
2022-09-12T23:39:02.111Z,17.50
2022-09-12T23:41:31.286Z,17.40
2022-09-12T23:44:01.597Z,17.30
2022-09-12T23:46:30.724Z,17.20
2022-09-12T23:48:59.482Z,17.20
2022-09-12T23:51:28.583Z,17.20
2022-09-12T23:53:57.517Z,17.20
2022-09-12T23:56:26.749Z,17.40
2022-09-12T23:58:55.632Z,17.50
